Auriesville, New York
Current Conditions -  °F | °C
As of 8:10 AM on Sunday 23 Nov 2014 (Local Time) from KNY0 Reporting Station
Overcast Overcast  
Wind Chill: 33°   Ceiling: 2600
Heat Index: 37°   Visibility: 10mi
Dew Point: 35°   Wind: 5mph
Humidity: 92%   Direction: 150°SSE
Pressure: 30.09"   Gusts: NA
Location:  42.93°N, 74.32°W
Report Text: KNY0 231310Z AUTO 15004KT 10SM BKN026 OVC031 03/01 A3009 RMK AO2 T00260014
Loading
Personal Weather Stations






























Interactive Weather Map New forecast layout! Learn more

10-Day Weather Forecast

Advertisements
Track Severe Weather on mobile